createdAt,value
2018-12-20T00:02:19.696Z,3.90
2018-12-20T00:04:45.832Z,3.90
2018-12-20T00:07:11.972Z,3.90
2018-12-20T00:09:38.146Z,3.70
2018-12-20T00:12:04.418Z,3.70
2018-12-20T00:14:30.871Z,3.70
2018-12-20T00:17:03.114Z,3.60
2018-12-20T00:19:29.207Z,3.60
2018-12-20T00:21:55.353Z,3.50
2018-12-20T00:24:21.736Z,3.50
2018-12-20T00:26:47.842Z,3.40
2018-12-20T00:29:13.964Z,3.50
2018-12-20T00:31:40.201Z,3.40
2018-12-20T00:34:06.380Z,3.30
2018-12-20T00:36:32.699Z,3.20
2018-12-20T00:38:59.046Z,3.10
2018-12-20T00:41:25.320Z,3.10
2018-12-20T00:43:51.607Z,3.20
2018-12-20T00:46:17.815Z,3.30
2018-12-20T00:48:43.956Z,3.30
2018-12-20T00:51:10.234Z,3.30
2018-12-20T00:53:36.556Z,3.40
2018-12-20T00:56:02.738Z,3.40
2018-12-20T00:58:28.859Z,3.50
2018-12-20T01:00:55.109Z,3.50
2018-12-20T01:03:21.320Z,3.50
2018-12-20T01:05:47.736Z,3.40
2018-12-20T01:08:13.934Z,3.40
2018-12-20T01:10:40.158Z,3.40
2018-12-20T01:13:06.258Z,3.30
2018-12-20T01:15:32.364Z,3.10
2018-12-20T01:17:58.530Z,3.10
2018-12-20T01:20:24.745Z,3.20
2018-12-20T01:22:50.891Z,3.20
2018-12-20T01:25:17.005Z,3.20
2018-12-20T01:27:43.244Z,3.30
2018-12-20T01:30:09.577Z,3.30
2018-12-20T01:32:35.809Z,3.30
2018-12-20T01:35:02.175Z,3.30
2018-12-20T01:37:28.271Z,3.40
2018-12-20T01:39:54.647Z,3.40
2018-12-20T01:42:20.883Z,3.40
2018-12-20T01:44:53.430Z,3.40
2018-12-20T01:47:15.220Z,3.40
2018-12-20T01:49:41.440Z,3.40
2018-12-20T01:52:07.872Z,3.50
2018-12-20T01:54:33.998Z,3.50
2018-12-20T01:57:00.234Z,3.50
2018-12-20T01:59:26.456Z,3.50
2018-12-20T02:01:52.667Z,3.40
2018-12-20T02:04:18.777Z,3.40
2018-12-20T02:06:45.333Z,3.30
2018-12-20T02:09:11.601Z,3.30
2018-12-20T02:11:37.755Z,3.30
2018-12-20T02:14:03.963Z,3.30
2018-12-20T02:16:30.178Z,3.20
2018-12-20T02:18:56.497Z,3.20
2018-12-20T02:21:22.808Z,3.30
2018-12-20T02:23:49.170Z,3.10
2018-12-20T02:26:15.426Z,3.20
2018-12-20T02:28:41.862Z,3.20
2018-12-20T02:31:08.079Z,3.20
2018-12-20T02:33:34.167Z,3.20
2018-12-20T02:36:00.444Z,3.30
2018-12-20T02:38:26.739Z,3.30
2018-12-20T02:40:53.934Z,3.40
2018-12-20T02:43:20.028Z,3.30
2018-12-20T02:45:46.247Z,3.30
2018-12-20T02:48:12.336Z,3.40
2018-12-20T02:50:38.654Z,3.40
2018-12-20T02:53:04.747Z,3.40
2018-12-20T02:55:31.044Z,3.50
2018-12-20T02:57:57.264Z,3.40
2018-12-20T03:00:23.654Z,3.30
2018-12-20T03:02:49.919Z,3.40
2018-12-20T03:05:16.117Z,3.40
2018-12-20T03:07:42.827Z,3.30
2018-12-20T03:10:09.123Z,3.30
2018-12-20T03:12:35.491Z,3.40
2018-12-20T03:15:01.878Z,3.50
2018-12-20T03:17:28.101Z,3.60
2018-12-20T03:19:54.365Z,3.50
2018-12-20T03:22:20.746Z,3.80
2018-12-20T03:24:46.977Z,3.60
2018-12-20T03:27:13.497Z,3.80
2018-12-20T03:29:39.937Z,3.80
2018-12-20T03:32:06.225Z,3.80
2018-12-20T03:34:32.313Z,3.70
2018-12-20T03:36:58.526Z,3.70
2018-12-20T03:39:24.615Z,3.70
2018-12-20T03:41:50.890Z,3.60
2018-12-20T03:44:17.252Z,3.60
2018-12-20T03:46:43.734Z,3.50
2018-12-20T03:49:10.062Z,3.50
2018-12-20T03:51:36.282Z,3.50
2018-12-20T03:54:03.199Z,3.50
2018-12-20T03:56:29.447Z,4.00
2018-12-20T03:58:55.606Z,3.40
2018-12-20T04:01:21.885Z,3.40
2018-12-20T04:03:48.259Z,3.40
2018-12-20T04:06:14.605Z,3.50
2018-12-20T04:08:40.903Z,3.40
2018-12-20T04:11:07.003Z,3.50
2018-12-20T04:13:33.119Z,3.50
2018-12-20T04:15:59.372Z,3.50
2018-12-20T04:18:25.758Z,3.60
2018-12-20T04:20:52.172Z,3.70
2018-12-20T04:23:18.753Z,3.70
2018-12-20T04:25:44.930Z,3.70
2018-12-20T04:28:11.042Z,3.70
2018-12-20T04:30:37.247Z,3.70
2018-12-20T04:33:03.498Z,3.70
2018-12-20T04:35:29.702Z,3.70
2018-12-20T04:37:55.976Z,3.70
2018-12-20T04:40:22.489Z,3.60
2018-12-20T04:42:48.967Z,3.70
2018-12-20T04:45:15.488Z,3.80
2018-12-20T04:47:41.789Z,3.70
2018-12-20T04:50:07.966Z,3.60
2018-12-20T04:52:34.262Z,3.70
2018-12-20T04:55:00.827Z,3.70
2018-12-20T04:57:27.170Z,3.70
2018-12-20T04:59:53.410Z,3.80
2018-12-20T05:02:19.585Z,3.80
2018-12-20T05:04:45.791Z,3.70
2018-12-20T05:07:11.952Z,3.80
2018-12-20T05:09:38.214Z,3.70
2018-12-20T05:12:04.377Z,3.70
2018-12-20T05:14:30.691Z,3.80
2018-12-20T05:16:57.164Z,3.80
2018-12-20T05:19:23.616Z,3.90
2018-12-20T05:21:50.017Z,3.90
2018-12-20T05:24:16.911Z,3.80
2018-12-20T05:26:43.320Z,3.70
2018-12-20T05:29:09.718Z,3.80
2018-12-20T05:31:35.959Z,3.80
2018-12-20T05:34:02.046Z,3.80
2018-12-20T05:36:28.169Z,3.70
2018-12-20T05:38:54.256Z,3.70
2018-12-20T05:41:20.338Z,3.70
2018-12-20T05:43:46.477Z,3.70
2018-12-20T05:46:12.681Z,3.60
2018-12-20T05:48:38.831Z,3.50
2018-12-20T05:51:04.925Z,3.60
2018-12-20T05:53:31.179Z,3.50
2018-12-20T05:55:58.013Z,3.40
2018-12-20T05:58:24.314Z,3.40
2018-12-20T06:00:50.680Z,3.40
2018-12-20T06:03:17.072Z,3.40
2018-12-20T06:05:43.445Z,3.40
2018-12-20T06:08:09.781Z,3.40
2018-12-20T06:10:36.071Z,3.40
2018-12-20T06:13:02.238Z,3.40
2018-12-20T06:15:28.328Z,3.40
2018-12-20T06:17:54.606Z,3.40
2018-12-20T06:20:20.870Z,3.40
2018-12-20T06:22:47.073Z,3.30
2018-12-20T06:25:13.164Z,3.10
2018-12-20T06:27:39.367Z,3.10
2018-12-20T06:30:06.288Z,3.10
2018-12-20T06:32:32.378Z,3.10
2018-12-20T06:34:58.584Z,3.10
2018-12-20T06:37:24.805Z,3.20
2018-12-20T06:39:51.010Z,3.10
2018-12-20T06:42:17.099Z,3.20
2018-12-20T06:44:43.217Z,3.10
2018-12-20T06:47:09.306Z,3.20
2018-12-20T06:49:35.437Z,3.10
2018-12-20T06:52:01.529Z,3.20
2018-12-20T06:54:28.646Z,3.30
2018-12-20T06:56:54.741Z,3.40
2018-12-20T06:59:20.824Z,3.40
2018-12-20T07:01:46.946Z,3.50
2018-12-20T07:04:14.079Z,3.60
2018-12-20T07:06:40.170Z,3.70
2018-12-20T07:09:06.674Z,3.70
2018-12-20T07:11:32.777Z,3.80
2018-12-20T07:13:58.975Z,3.80
2018-12-20T07:16:29.246Z,3.80
2018-12-20T07:18:53.170Z,3.80
2018-12-20T07:21:19.271Z,3.90
2018-12-20T07:23:45.371Z,3.90
2018-12-20T07:26:11.467Z,3.80
2018-12-20T07:28:37.546Z,3.80
2018-12-20T07:31:03.760Z,3.90
2018-12-20T07:33:29.856Z,3.80
2018-12-20T07:35:55.951Z,3.80
2018-12-20T07:38:22.037Z,3.80
2018-12-20T07:40:48.126Z,3.80
2018-12-20T07:43:14.216Z,3.80
2018-12-20T07:45:40.304Z,3.90
2018-12-20T07:48:06.504Z,3.90
2018-12-20T07:50:32.602Z,4.00
2018-12-20T07:52:58.678Z,4.10
2018-12-20T07:55:24.903Z,4.20
2018-12-20T07:57:50.990Z,4.30
2018-12-20T08:00:17.134Z,4.40
2018-12-20T08:02:43.338Z,4.40
2018-12-20T08:05:09.590Z,4.40
2018-12-20T08:07:35.696Z,4.40
2018-12-20T08:10:01.916Z,4.40
2018-12-20T08:12:28.016Z,4.40
2018-12-20T08:14:54.107Z,4.40
2018-12-20T08:17:20.210Z,4.20
2018-12-20T08:19:46.305Z,4.30
2018-12-20T08:22:12.403Z,4.10
2018-12-20T08:24:38.498Z,4.20
2018-12-20T08:27:04.596Z,4.00
2018-12-20T08:29:30.703Z,4.00
2018-12-20T08:31:56.800Z,3.90
2018-12-20T08:34:22.895Z,3.90
2018-12-20T08:36:48.995Z,4.00
2018-12-20T08:39:15.080Z,4.10
2018-12-20T08:41:41.221Z,4.30
2018-12-20T08:44:07.458Z,4.40
2018-12-20T08:46:33.646Z,4.40
2018-12-20T08:48:59.855Z,4.40
2018-12-20T08:51:25.946Z,4.50
2018-12-20T08:53:52.046Z,4.50
2018-12-20T08:56:18.145Z,4.60
2018-12-20T08:58:44.249Z,4.60
2018-12-20T09:01:10.370Z,4.70
2018-12-20T09:03:36.486Z,4.80
2018-12-20T09:06:02.802Z,4.90
2018-12-20T09:08:28.904Z,5.00
2018-12-20T09:10:55.010Z,5.10
2018-12-20T09:13:21.127Z,5.30
2018-12-20T09:15:47.271Z,5.30
2018-12-20T09:18:13.375Z,5.40
2018-12-20T09:20:39.467Z,5.50
2018-12-20T09:23:05.684Z,5.50
2018-12-20T09:25:31.795Z,5.60
2018-12-20T09:27:57.888Z,5.70
2018-12-20T09:30:30.488Z,5.80
2018-12-20T09:32:52.095Z,5.90
2018-12-20T09:35:18.197Z,5.90
2018-12-20T09:37:44.399Z,5.90
2018-12-20T09:40:10.510Z,5.90
2018-12-20T09:42:36.607Z,5.80
2018-12-20T09:45:03.115Z,5.90
2018-12-20T09:47:35.259Z,6.10
2018-12-20T09:50:01.567Z,6.00
2018-12-20T09:52:27.648Z,5.80
2018-12-20T09:54:53.737Z,5.50
2018-12-20T09:57:19.822Z,5.50
2018-12-20T09:59:45.917Z,5.50
2018-12-20T10:02:12.006Z,5.40
2018-12-20T10:04:38.103Z,5.40
2018-12-20T10:07:04.218Z,5.40
2018-12-20T10:09:31.492Z,5.60
2018-12-20T10:11:57.923Z,5.60
2018-12-20T10:14:24.020Z,5.70
2018-12-20T10:16:50.118Z,5.90
2018-12-20T10:19:16.239Z,5.80
2018-12-20T10:21:42.356Z,5.80
2018-12-20T10:24:08.439Z,5.70
2018-12-20T10:26:34.750Z,5.70
2018-12-20T10:29:00.827Z,5.80
2018-12-20T10:31:26.953Z,5.90
2018-12-20T10:33:53.039Z,6.00
2018-12-20T10:36:19.123Z,6.10
2018-12-20T10:38:45.231Z,6.10
2018-12-20T10:41:11.433Z,6.10
2018-12-20T10:43:37.511Z,5.90
2018-12-20T10:46:03.706Z,5.90
2018-12-20T10:48:29.794Z,5.90
2018-12-20T10:50:55.903Z,5.90
2018-12-20T10:53:21.982Z,5.80
2018-12-20T10:55:48.079Z,5.70
2018-12-20T10:58:14.188Z,5.70
2018-12-20T11:00:46.459Z,5.80
2018-12-20T11:03:18.576Z,6.10
2018-12-20T11:05:51.007Z,6.20
2018-12-20T11:08:21.954Z,6.10
2018-12-20T11:10:50.088Z,6.20
2018-12-20T11:13:22.478Z,6.30
2018-12-20T11:15:48.694Z,6.30
2018-12-20T11:18:14.794Z,6.50
2018-12-20T11:20:40.887Z,6.80
2018-12-20T11:23:06.995Z,6.90
2018-12-20T11:25:33.113Z,6.90
2018-12-20T11:27:59.204Z,6.90
2018-12-20T11:30:25.301Z,6.80
2018-12-20T11:32:51.495Z,6.90
2018-12-20T11:35:17.690Z,6.70
2018-12-20T11:37:44.784Z,6.80
2018-12-20T11:40:10.905Z,6.90
2018-12-20T11:42:36.996Z,7.00
2018-12-20T11:45:04.208Z,7.00
2018-12-20T11:47:30.287Z,7.10
2018-12-20T11:49:56.374Z,7.20
2018-12-20T11:52:22.689Z,7.20
2018-12-20T11:54:48.783Z,7.30
2018-12-20T11:57:14.887Z,7.30
2018-12-20T11:59:40.985Z,7.20
2018-12-20T12:02:07.196Z,7.00
2018-12-20T12:04:33.288Z,7.10
2018-12-20T12:06:59.370Z,7.10
2018-12-20T12:09:25.603Z,7.20
2018-12-20T12:11:51.699Z,7.40
2018-12-20T12:14:17.787Z,7.60
2018-12-20T12:16:43.915Z,7.50
2018-12-20T12:19:10.127Z,7.60
2018-12-20T12:21:36.406Z,7.60
2018-12-20T12:24:02.754Z,7.90
2018-12-20T12:26:28.974Z,7.80
2018-12-20T12:28:55.063Z,7.60
2018-12-20T12:31:21.159Z,7.80
2018-12-20T12:33:47.252Z,7.90
2018-12-20T12:36:13.342Z,8.10
2018-12-20T12:38:39.756Z,8.30
2018-12-20T12:41:05.882Z,8.50
2018-12-20T12:43:31.970Z,8.80
2018-12-20T12:45:58.190Z,9.00
2018-12-20T12:48:24.395Z,9.10
2018-12-20T12:50:50.493Z,9.50
2018-12-20T12:53:16.606Z,9.70
2018-12-20T12:55:42.943Z,9.80
2018-12-20T12:58:09.075Z,9.60
2018-12-20T13:00:35.195Z,10.50
2018-12-20T13:03:01.350Z,9.60
2018-12-20T13:05:27.459Z,9.80
2018-12-20T13:07:53.666Z,9.60
2018-12-20T13:10:19.882Z,9.50
2018-12-20T13:12:45.980Z,9.50
2018-12-20T13:15:12.094Z,9.90
2018-12-20T13:17:38.182Z,10.20
2018-12-20T13:20:07.248Z,10.30
2018-12-20T13:22:33.361Z,10.40
2018-12-20T13:24:59.577Z,10.50
2018-12-20T13:27:25.686Z,10.50
2018-12-20T13:29:51.814Z,10.70
2018-12-20T13:32:18.046Z,10.70
2018-12-20T13:34:45.168Z,10.60
2018-12-20T13:37:15.860Z,10.60
2018-12-20T13:39:39.499Z,10.50
2018-12-20T13:42:05.619Z,10.30
2018-12-20T13:44:31.752Z,10.30
2018-12-20T13:46:57.981Z,10.30
2018-12-20T13:49:24.074Z,10.00
2018-12-20T13:51:50.191Z,10.00
2018-12-20T13:54:16.304Z,10.10
2018-12-20T13:56:42.410Z,10.10
2018-12-20T13:59:08.522Z,10.20
2018-12-20T14:01:34.758Z,10.00
2018-12-20T14:04:00.890Z,10.00
2018-12-20T14:06:27.106Z,9.90
2018-12-20T14:08:53.213Z,10.00
2018-12-20T14:11:19.306Z,10.10
2018-12-20T14:13:45.406Z,10.20
2018-12-20T14:16:11.612Z,10.10
2018-12-20T14:18:37.831Z,9.90
2018-12-20T14:21:03.918Z,9.70
2018-12-20T14:23:30.157Z,9.60
2018-12-20T14:25:56.470Z,9.10
2018-12-20T14:28:22.678Z,8.40
2018-12-20T14:30:48.782Z,8.00
2018-12-20T14:33:14.999Z,7.80
2018-12-20T14:35:41.107Z,8.00
2018-12-20T14:38:07.187Z,8.30
2018-12-20T14:40:33.293Z,8.90
2018-12-20T14:42:59.406Z,9.10
2018-12-20T14:45:25.502Z,9.20
2018-12-20T14:47:51.618Z,9.20
2018-12-20T14:50:17.754Z,8.60
2018-12-20T14:52:43.830Z,8.00
2018-12-20T14:55:09.926Z,7.60
2018-12-20T14:57:36.136Z,7.30
2018-12-20T15:00:03.743Z,7.10
2018-12-20T15:02:29.950Z,6.90
2018-12-20T15:04:56.048Z,6.60
2018-12-20T15:07:22.193Z,6.50
2018-12-20T15:09:48.282Z,6.40
2018-12-20T15:12:14.488Z,8.30
2018-12-20T15:14:40.570Z,6.30
2018-12-20T15:17:06.714Z,6.90
2018-12-20T15:19:32.809Z,6.20
2018-12-20T15:21:59.035Z,6.10
2018-12-20T15:24:25.254Z,6.20
2018-12-20T15:26:51.443Z,6.20
2018-12-20T15:29:17.548Z,6.20
2018-12-20T15:31:43.664Z,6.30
2018-12-20T15:34:09.786Z,6.20
2018-12-20T15:36:35.886Z,6.20
2018-12-20T15:39:05.023Z,6.10
2018-12-20T15:41:31.122Z,6.10
2018-12-20T15:43:57.238Z,6.00
2018-12-20T15:46:23.330Z,6.00
2018-12-20T15:48:56.291Z,6.00
2018-12-20T15:51:19.624Z,5.90
2018-12-20T15:53:45.813Z,5.90
2018-12-20T15:56:11.894Z,5.90
2018-12-20T15:58:37.977Z,5.90
2018-12-20T16:01:04.964Z,5.90
2018-12-20T16:03:31.374Z,5.90
2018-12-20T16:05:57.485Z,5.80
2018-12-20T16:08:23.578Z,5.80
2018-12-20T16:10:49.693Z,5.70
2018-12-20T16:13:15.854Z,5.60
2018-12-20T16:15:42.127Z,5.60
2018-12-20T16:18:08.464Z,5.60
2018-12-20T16:20:34.579Z,5.50
2018-12-20T16:23:00.674Z,5.50
2018-12-20T16:25:26.747Z,5.50
2018-12-20T16:27:52.878Z,5.60
2018-12-20T16:30:18.951Z,5.60
2018-12-20T16:32:45.161Z,5.60
2018-12-20T16:35:11.270Z,5.40
2018-12-20T16:37:37.496Z,5.40
2018-12-20T16:40:04.604Z,5.40
2018-12-20T16:42:30.839Z,5.50
2018-12-20T16:44:56.945Z,5.40
2018-12-20T16:47:23.372Z,5.30
2018-12-20T16:49:49.499Z,5.30
2018-12-20T16:52:15.603Z,5.30
2018-12-20T16:54:41.707Z,5.20
2018-12-20T16:57:07.943Z,5.20
2018-12-20T16:59:34.036Z,5.20
2018-12-20T17:02:00.131Z,5.20
2018-12-20T17:04:26.231Z,5.20
2018-12-20T17:06:52.331Z,5.10
2018-12-20T17:09:18.472Z,5.10
2018-12-20T17:11:44.571Z,5.20
2018-12-20T17:14:10.834Z,5.10
2018-12-20T17:16:36.946Z,5.10
2018-12-20T17:19:03.284Z,5.20
2018-12-20T17:21:29.402Z,5.20
2018-12-20T17:23:55.629Z,5.20
2018-12-20T17:26:21.843Z,5.20
2018-12-20T17:28:47.922Z,5.20
2018-12-20T17:31:14.234Z,5.30
2018-12-20T17:33:40.335Z,5.30
2018-12-20T17:36:06.418Z,5.20
2018-12-20T17:38:32.503Z,5.10
2018-12-20T17:40:58.630Z,5.20
2018-12-20T17:43:24.758Z,5.20
2018-12-20T17:45:50.843Z,5.30
2018-12-20T17:48:16.991Z,5.20
2018-12-20T17:50:43.219Z,5.20
2018-12-20T17:53:09.335Z,5.20
2018-12-20T17:55:35.434Z,5.30
2018-12-20T17:58:01.539Z,5.30
2018-12-20T18:00:27.635Z,5.30
2018-12-20T18:02:53.745Z,5.40
2018-12-20T18:05:19.983Z,5.40
2018-12-20T18:07:46.081Z,5.40
2018-12-20T18:10:12.369Z,5.50
2018-12-20T18:12:38.590Z,5.40
2018-12-20T18:15:06.706Z,5.30
2018-12-20T18:17:32.805Z,5.40
2018-12-20T18:19:58.881Z,5.40
2018-12-20T18:22:24.975Z,5.40
2018-12-20T18:24:51.063Z,5.40
2018-12-20T18:27:17.173Z,5.30
2018-12-20T18:29:43.394Z,5.30
2018-12-20T18:32:09.486Z,5.20
2018-12-20T18:34:35.591Z,5.30
2018-12-20T18:37:01.695Z,5.40
2018-12-20T18:39:27.813Z,5.50
2018-12-20T18:41:54.015Z,5.60
2018-12-20T18:44:20.107Z,5.80
2018-12-20T18:46:46.431Z,5.70
2018-12-20T18:49:12.538Z,5.60
2018-12-20T18:51:38.639Z,5.70
2018-12-20T18:54:04.746Z,5.50
2018-12-20T18:56:30.835Z,5.50
2018-12-20T18:58:56.923Z,5.50
2018-12-20T19:01:23.017Z,5.40
2018-12-20T19:03:49.126Z,5.40
2018-12-20T19:06:15.340Z,5.50
2018-12-20T19:08:41.551Z,5.40
2018-12-20T19:11:07.656Z,5.60
2018-12-20T19:13:33.795Z,5.70
2018-12-20T19:15:59.923Z,5.80
2018-12-20T19:18:26.024Z,5.90
2018-12-20T19:20:52.110Z,5.90
2018-12-20T19:23:18.212Z,5.90
2018-12-20T19:25:44.439Z,5.80
2018-12-20T19:28:10.528Z,5.80
2018-12-20T19:30:36.611Z,5.70
2018-12-20T19:33:03.949Z,5.60
2018-12-20T19:35:30.038Z,5.60
2018-12-20T19:37:56.128Z,5.60
2018-12-20T19:40:22.326Z,5.60
2018-12-20T19:42:48.540Z,5.40
2018-12-20T19:45:14.632Z,5.40
2018-12-20T19:47:40.733Z,5.40
2018-12-20T19:50:07.550Z,5.30
2018-12-20T19:52:33.654Z,5.20
2018-12-20T19:54:59.755Z,5.10
2018-12-20T19:57:25.862Z,5.10
2018-12-20T19:59:51.957Z,5.10
2018-12-20T20:02:18.170Z,5.10
2018-12-20T20:04:44.343Z,5.00
2018-12-20T20:07:10.451Z,5.00
2018-12-20T20:09:37.584Z,5.00
2018-12-20T20:12:03.816Z,5.00
2018-12-20T20:14:29.933Z,5.00
2018-12-20T20:16:56.020Z,5.10
2018-12-20T20:19:22.111Z,5.20
2018-12-20T20:21:48.342Z,5.20
2018-12-20T20:24:14.482Z,5.30
2018-12-20T20:26:40.626Z,5.30
2018-12-20T20:29:06.745Z,5.40
2018-12-20T20:31:32.840Z,5.50
2018-12-20T20:33:58.934Z,5.50
2018-12-20T20:36:25.162Z,5.50
2018-12-20T20:38:51.288Z,5.50
2018-12-20T20:41:17.498Z,5.50
2018-12-20T20:43:43.594Z,5.50
2018-12-20T20:46:09.678Z,5.50
2018-12-20T20:48:35.895Z,5.50
2018-12-20T20:51:02.215Z,5.40
2018-12-20T20:53:28.290Z,5.50
2018-12-20T20:55:55.458Z,5.50
2018-12-20T20:58:21.554Z,5.40
2018-12-20T21:00:47.659Z,5.40
2018-12-20T21:03:13.881Z,5.30
2018-12-20T21:05:39.971Z,6.00
2018-12-20T21:08:06.178Z,5.20
2018-12-20T21:10:32.306Z,5.20
2018-12-20T21:12:58.409Z,5.10
2018-12-20T21:15:24.595Z,5.20
2018-12-20T21:17:50.711Z,5.10
2018-12-20T21:20:16.811Z,5.10
2018-12-20T21:22:43.029Z,5.00
2018-12-20T21:25:09.137Z,5.10
2018-12-20T21:27:36.287Z,5.10
2018-12-20T21:30:03.897Z,5.10
2018-12-20T21:32:29.995Z,5.00
2018-12-20T21:34:56.103Z,5.10
2018-12-20T21:37:22.198Z,5.10
2018-12-20T21:39:48.283Z,5.10
2018-12-20T21:42:14.367Z,5.20
2018-12-20T21:44:40.466Z,5.20
2018-12-20T21:47:06.562Z,5.20
2018-12-20T21:49:32.648Z,5.30
2018-12-20T21:51:58.742Z,5.20
2018-12-20T21:54:24.862Z,5.20
2018-12-20T21:56:50.962Z,5.10
2018-12-20T21:59:17.179Z,5.00
2018-12-20T22:01:43.451Z,5.00
2018-12-20T22:04:09.550Z,5.10
2018-12-20T22:06:35.642Z,5.10
2018-12-20T22:09:01.873Z,5.20
2018-12-20T22:11:28.183Z,5.20
2018-12-20T22:13:54.288Z,5.30
2018-12-20T22:16:20.395Z,5.30
2018-12-20T22:18:46.494Z,5.30
2018-12-20T22:21:12.587Z,5.40
2018-12-20T22:23:38.699Z,5.40
2018-12-20T22:26:04.807Z,5.30
2018-12-20T22:28:30.908Z,5.30
2018-12-20T22:30:57.002Z,5.40
2018-12-20T22:33:23.100Z,5.40
2018-12-20T22:35:49.261Z,5.40
2018-12-20T22:38:15.408Z,5.40
2018-12-20T22:40:41.524Z,5.40
2018-12-20T22:43:07.603Z,5.30
2018-12-20T22:45:33.681Z,5.30
2018-12-20T22:47:59.786Z,5.20
2018-12-20T22:50:25.885Z,5.10
2018-12-20T22:52:51.970Z,5.00
2018-12-20T22:55:18.076Z,5.10
2018-12-20T22:57:44.158Z,5.10
2018-12-20T23:00:11.096Z,5.00
2018-12-20T23:02:37.434Z,5.00
2018-12-20T23:05:03.745Z,5.00
2018-12-20T23:07:29.854Z,4.90
2018-12-20T23:09:55.950Z,4.90
2018-12-20T23:12:23.601Z,4.90
2018-12-20T23:14:49.694Z,5.00
2018-12-20T23:17:15.783Z,5.00
2018-12-20T23:19:41.879Z,5.00
2018-12-20T23:22:08.084Z,5.10
2018-12-20T23:24:34.183Z,5.00
2018-12-20T23:27:00.279Z,5.00
2018-12-20T23:29:26.490Z,5.00
2018-12-20T23:31:52.591Z,5.00
2018-12-20T23:34:18.674Z,5.00
2018-12-20T23:36:44.799Z,4.90
2018-12-20T23:39:10.911Z,4.90
2018-12-20T23:41:37.010Z,4.90
2018-12-20T23:44:03.341Z,4.70
2018-12-20T23:46:29.470Z,4.60
2018-12-20T23:48:55.568Z,4.60
2018-12-20T23:51:21.678Z,4.60
2018-12-20T23:53:47.758Z,4.60
2018-12-20T23:56:14.020Z,4.60
2018-12-20T23:58:40.106Z,4.70
